Time;durP1;ratioP1;P1;durP2;ratioP2;P2;SDS_P1;SDS_P2;PMS_P1;PMS_P2;Temp;Humidity;BMP_temperature;BMP_pressure;BME280_temperature;BME280_humidity;BME280_pressure;Samples;Min_cycle;Max_cycle;Signal;HPM_P1;HPM_P2
2023/09/22 00:00:41;;;;;;;;;;;21.70;93.30;;;;;;5075577;28;20011;-54
2023/09/22 00:03:07;;;;;;;;;;;21.70;93.30;;;;;;5075306;28;19912;-50
2023/09/22 00:05:33;;;;;;;;;;;21.80;93.30;;;;;;5074275;28;19910;-51
2023/09/22 00:07:58;;;;;;;;;;;21.80;93.40;;;;;;5074895;28;19904;-49
2023/09/22 00:10:24;;;;;;;;;;;21.80;93.30;;;;;;5057498;28;20331;-53
2023/09/22 00:12:49;;;;;;;;;;;21.80;93.30;;;;;;5074971;28;19920;-53
2023/09/22 00:15:15;;;;;;;;;;;21.80;93.60;;;;;;5075365;28;19908;-50
2023/09/22 00:17:41;;;;;;;;;;;21.70;93.30;;;;;;5074940;28;19904;-51
2023/09/22 00:20:13;;;;;;;;;;;21.80;93.30;;;;;;5074539;28;20348;-49
2023/09/22 00:22:39;;;;;;;;;;;21.80;93.30;;;;;;5075348;28;19904;-52
2023/09/22 00:25:04;;;;;;;;;;;21.80;93.30;;;;;;5075174;28;19916;-50
2023/09/22 00:27:30;;;;;;;;;;;21.80;93.30;;;;;;5074813;28;19912;-53
2023/09/22 00:29:55;;;;;;;;;;;21.80;93.30;;;;;;5074334;28;19909;-50
2023/09/22 00:32:21;;;;;;;;;;;21.80;93.30;;;;;;5074248;28;19908;-53
2023/09/22 00:34:46;;;;;;;;;;;21.80;93.30;;;;;;5074646;28;20375;-53
2023/09/22 00:37:12;;;;;;;;;;;21.80;93.30;;;;;;5075265;28;19955;-53
2023/09/22 00:39:38;;;;;;;;;;;21.80;93.30;;;;;;5073923;28;20212;-53
2023/09/22 00:42:08;;;;;;;;;;;21.80;93.30;;;;;;5074808;28;20370;-51
2023/09/22 00:44:33;;;;;;;;;;;21.80;93.30;;;;;;5074726;28;19908;-54
2023/09/22 00:46:59;;;;;;;;;;;21.80;93.30;;;;;;5074333;28;19916;-50
2023/09/22 00:49:25;;;;;;;;;;;21.80;93.30;;;;;;5073278;28;19970;-53
2023/09/22 00:51:51;;;;;;;;;;;21.80;93.30;;;;;;5074410;28;19919;-51
2023/09/22 00:54:16;;;;;;;;;;;21.80;93.30;;;;;;5074478;28;19912;-50
2023/09/22 00:56:43;;;;;;;;;;;21.80;93.30;;;;;;5074108;28;19905;-54
2023/09/22 00:59:09;;;;;;;;;;;21.80;93.30;;;;;;5074584;28;20355;-53
2023/09/22 01:01:34;;;;;;;;;;;21.80;93.30;;;;;;5074103;28;19908;-51
2023/09/22 01:04:00;;;;;;;;;;;21.80;93.30;;;;;;5074518;28;20326;-51
2023/09/22 01:06:25;;;;;;;;;;;21.80;93.40;;;;;;5074495;28;19911;-51
2023/09/22 01:08:51;;;;;;;;;;;21.80;93.40;;;;;;5070391;28;19904;-52
2023/09/22 01:11:17;;;;;;;;;;;21.80;93.40;;;;;;5067058;28;19916;-52
2023/09/22 01:13:42;;;;;;;;;;;21.80;93.40;;;;;;5087658;28;20003;-50
2023/09/22 01:16:08;;;;;;;;;;;21.80;93.40;;;;;;5080895;28;19911;-53
2023/09/22 01:18:33;;;;;;;;;;;21.80;93.60;;;;;;5074021;28;20065;-51
2023/09/22 01:20:59;;;;;;;;;;;21.80;93.40;;;;;;5072812;28;20259;-53
2023/09/22 01:23:24;;;;;;;;;;;21.80;93.40;;;;;;5073970;28;20037;-53
2023/09/22 01:25:50;;;;;;;;;;;21.80;93.40;;;;;;5087863;28;19904;-52
2023/09/22 01:28:16;;;;;;;;;;;21.80;93.40;;;;;;5094440;28;19954;-52
2023/09/22 01:30:42;;;;;;;;;;;21.80;93.40;;;;;;5083489;28;20366;-48
2023/09/22 01:33:08;;;;;;;;;;;21.80;93.40;;;;;;5077190;28;19912;-54
2023/09/22 01:35:35;;;;;;;;;;;21.80;93.40;;;;;;5091448;28;20408;-51
2023/09/22 01:38:10;;;;;;;;;;;21.80;93.40;;;;;;5090100;28;19905;-52
2023/09/22 01:40:36;;;;;;;;;;;21.80;93.40;;;;;;5073953;28;19911;-54
2023/09/22 01:43:01;;;;;;;;;;;21.80;93.40;;;;;;5071317;28;20301;-50
2023/09/22 01:45:27;;;;;;;;;;;21.80;93.40;;;;;;5073705;28;19908;-52
2023/09/22 01:47:52;;;;;;;;;;;21.80;93.40;;;;;;5075051;28;19905;-53
2023/09/22 01:50:18;;;;;;;;;;;21.80;93.40;;;;;;5058764;28;19969;-52
2023/09/22 01:52:44;;;;;;;;;;;21.80;93.40;;;;;;5053916;28;19962;-50
2023/09/22 01:55:09;;;;;;;;;;;21.80;93.40;;;;;;5050426;28;20263;-51
2023/09/22 01:57:35;;;;;;;;;;;21.80;93.40;;;;;;5053459;28;19905;-53
2023/09/22 02:00:05;;;;;;;;;;;21.80;93.40;;;;;;5050594;28;20050;-53
2023/09/22 02:02:30;;;;;;;;;;;21.80;93.40;;;;;;5054369;28;20008;-52
2023/09/22 02:04:56;;;;;;;;;;;21.80;93.40;;;;;;5052176;28;20002;-53
2023/09/22 02:07:22;;;;;;;;;;;21.80;93.40;;;;;;5053490;28;20356;-51
2023/09/22 02:09:47;;;;;;;;;;;21.80;93.40;;;;;;5056856;28;19948;-50
2023/09/22 02:12:13;;;;;;;;;;;21.80;93.40;;;;;;5053558;28;19971;-54
2023/09/22 02:14:39;;;;;;;;;;;21.80;93.40;;;;;;5053764;28;20367;-53
2023/09/22 02:17:04;;;;;;;;;;;21.80;93.50;;;;;;5053690;28;20022;-52
2023/09/22 02:19:33;;;;;;;;;;;21.80;93.50;;;;;;5040855;28;19955;-54
2023/09/22 02:21:59;;;;;;;;;;;21.80;93.50;;;;;;5053512;28;19940;-52
2023/09/22 02:24:24;;;;;;;;;;;21.80;93.50;;;;;;5053775;28;19948;-54
2023/09/22 02:26:50;;;;;;;;;;;21.80;93.50;;;;;;5053590;28;19909;-51
2023/09/22 02:29:15;;;;;;;;;;;21.80;93.50;;;;;;5053570;28;19912;-56
2023/09/22 02:31:41;;;;;;;;;;;21.80;93.50;;;;;;5051984;28;19916;-52
2023/09/22 02:34:06;;;;;;;;;;;21.80;93.50;;;;;;5053410;28;20301;-53
2023/09/22 02:36:32;;;;;;;;;;;21.80;93.50;;;;;;5053079;28;19912;-53
2023/09/22 02:38:58;;;;;;;;;;;21.80;93.50;;;;;;5053673;28;20193;-52
2023/09/22 02:41:23;;;;;;;;;;;21.80;93.50;;;;;;5053131;28;20355;-51
2023/09/22 02:43:48;;;;;;;;;;;21.80;93.40;;;;;;5035578;28;20348;-51
2023/09/22 02:46:14;;;;;;;;;;;21.80;93.40;;;;;;5032159;28;19909;-50
2023/09/22 02:48:39;;;;;;;;;;;21.80;93.40;;;;;;5052237;28;19912;-54
2023/09/22 02:51:06;;;;;;;;;;;21.80;93.40;;;;;;5072934;28;19936;-54
2023/09/22 02:53:31;;;;;;;;;;;21.80;93.40;;;;;;5073279;28;19909;-54
2023/09/22 02:55:57;;;;;;;;;;;21.80;93.40;;;;;;5057472;28;19915;-54
2023/09/22 02:58:23;;;;;;;;;;;21.80;93.40;;;;;;5077727;28;20300;-53
2023/09/22 03:00:48;;;;;;;;;;;21.80;93.40;;;;;;5076013;28;19958;-54
2023/09/22 03:03:14;;;;;;;;;;;21.80;93.40;;;;;;5075907;28;19916;-52
2023/09/22 03:05:39;;;;;;;;;;;21.80;93.40;;;;;;5077027;28;19904;-51
2023/09/22 03:08:05;;;;;;;;;;;21.80;93.40;;;;;;5076385;28;20347;-52
2023/09/22 03:10:31;;;;;;;;;;;21.80;93.50;;;;;;5076359;28;19904;-52
2023/09/22 03:12:56;;;;;;;;;;;21.80;93.50;;;;;;5075376;28;19991;-52
2023/09/22 03:15:22;;;;;;;;;;;21.80;93.50;;;;;;5074790;28;19912;-52
2023/09/22 03:17:48;;;;;;;;;;;21.80;93.50;;;;;;5076051;28;19904;-55
2023/09/22 03:20:14;;;;;;;;;;;21.80;92.90;;;;;;5074614;28;20347;-56
2023/09/22 03:22:40;;;;;;;;;;;21.80;91.50;;;;;;5056897;28;20114;-51
2023/09/22 03:25:06;;;;;;;;;;;21.80;92.30;;;;;;5074226;28;20069;-54
2023/09/22 03:27:34;;;;;;;;;;;21.80;92.90;;;;;;5074837;28;19931;-54
2023/09/22 03:29:59;;;;;;;;;;;21.80;93.10;;;;;;5074422;28;19966;-54
2023/09/22 03:32:25;;;;;;;;;;;21.80;93.20;;;;;;5074822;28;20012;-53
2023/09/22 03:34:51;;;;;;;;;;;21.80;93.20;;;;;;5075032;28;19908;-54
2023/09/22 03:37:18;;;;;;;;;;;21.80;93.20;;;;;;5076056;28;19950;-54
2023/09/22 03:39:45;;;;;;;;;;;21.80;93.20;;;;;;5075843;28;19926;-51
2023/09/22 03:42:13;;;;;;;;;;;21.80;93.20;;;;;;5076595;28;19904;-52
2023/09/22 03:44:39;;;;;;;;;;;21.80;93.20;;;;;;5075491;28;19912;-55
2023/09/22 03:47:05;;;;;;;;;;;21.80;93.20;;;;;;5075646;28;19909;-54
2023/09/22 03:49:30;;;;;;;;;;;21.80;93.20;;;;;;5075814;28;19916;-54
2023/09/22 03:51:56;;;;;;;;;;;21.80;93.20;;;;;;5075725;28;19908;-54
2023/09/22 03:54:21;;;;;;;;;;;21.80;93.20;;;;;;5075741;28;19908;-55
2023/09/22 03:56:47;;;;;;;;;;;21.80;93.20;;;;;;5075711;28;20366;-54
2023/09/22 03:59:12;;;;;;;;;;;21.80;93.20;;;;;;5074993;28;19908;-55
2023/09/22 04:01:38;;;;;;;;;;;21.80;93.20;;;;;;5075568;28;20340;-52
2023/09/22 04:04:04;;;;;;;;;;;21.80;93.20;;;;;;5075242;28;20454;-55
2023/09/22 04:06:30;;;;;;;;;;;21.80;93.20;;;;;;5073684;28;20031;-54
2023/09/22 04:08:56;;;;;;;;;;;21.80;93.20;;;;;;5075770;28;19905;-54
2023/09/22 04:11:22;;;;;;;;;;;21.80;93.20;;;;;;5075321;28;19912;-54
2023/09/22 04:13:47;;;;;;;;;;;21.80;93.20;;;;;;5075441;28;19908;-54
2023/09/22 04:16:14;;;;;;;;;;;21.80;93.20;;;;;;5074624;28;19908;-53
2023/09/22 04:18:39;;;;;;;;;;;21.80;93.20;;;;;;5075279;28;19999;-54
2023/09/22 04:21:07;;;;;;;;;;;21.80;93.20;;;;;;5075232;28;19944;-54
2023/09/22 04:23:34;;;;;;;;;;;21.80;93.20;;;;;;5075159;28;19904;-53
2023/09/22 04:26:02;;;;;;;;;;;21.80;93.20;;;;;;5073969;28;20438;-54
2023/09/22 04:28:28;;;;;;;;;;;21.80;93.20;;;;;;5075355;28;19927;-54
2023/09/22 04:30:55;;;;;;;;;;;21.80;93.20;;;;;;5075323;28;19905;-52
2023/09/22 04:33:21;;;;;;;;;;;21.80;93.20;;;;;;5074969;28;19961;-54
2023/09/22 04:35:50;;;;;;;;;;;21.80;93.30;;;;;;5074821;28;20310;-51
2023/09/22 04:38:17;;;;;;;;;;;21.80;93.20;;;;;;5074179;28;20303;-53
2023/09/22 04:40:44;;;;;;;;;;;21.80;93.20;;;;;;5074739;28;19957;-53
2023/09/22 04:43:12;;;;;;;;;;;21.80;93.20;;;;;;5074821;28;20305;-53
2023/09/22 04:45:40;;;;;;;;;;;21.80;93.20;;;;;;5074755;28;20224;-50
2023/09/22 04:48:05;;;;;;;;;;;21.80;93.20;;;;;;5073662;28;19909;-55
2023/09/22 04:50:31;;;;;;;;;;;21.80;93.20;;;;;;5074871;28;19962;-50
2023/09/22 04:52:57;;;;;;;;;;;21.80;93.20;;;;;;5074081;28;19914;-54
2023/09/22 04:55:23;;;;;;;;;;;21.80;93.20;;;;;;5074070;28;19920;-55
2023/09/22 04:57:48;;;;;;;;;;;21.80;93.20;;;;;;5074227;28;19904;-52
2023/09/22 05:00:15;;;;;;;;;;;21.80;93.20;;;;;;5074508;28;19962;-55
2023/09/22 05:02:41;;;;;;;;;;;21.80;93.20;;;;;;5074130;28;19911;-53
2023/09/22 05:05:07;;;;;;;;;;;21.80;93.20;;;;;;5073383;28;19995;-54
2023/09/22 05:07:33;;;;;;;;;;;21.80;93.20;;;;;;5074249;28;19905;-55
2023/09/22 05:09:59;;;;;;;;;;;21.80;93.20;;;;;;5074138;28;19950;-54
2023/09/22 05:12:25;;;;;;;;;;;21.80;93.20;;;;;;5074200;28;19912;-54
2023/09/22 05:14:50;;;;;;;;;;;21.80;93.20;;;;;;5073860;28;20266;-53
2023/09/22 05:17:16;;;;;;;;;;;21.80;93.20;;;;;;5072686;28;19904;-53
2023/09/22 05:19:42;;;;;;;;;;;21.80;93.20;;;;;;5073628;28;19908;-55
2023/09/22 05:22:08;;;;;;;;;;;21.80;93.20;;;;;;5073912;28;19928;-50
2023/09/22 05:24:33;;;;;;;;;;;21.80;93.20;;;;;;5073751;28;20367;-54
2023/09/22 05:26:59;;;;;;;;;;;21.80;93.20;;;;;;5072965;28;19951;-52
2023/09/22 05:29:24;;;;;;;;;;;21.80;93.20;;;;;;5073608;28;19913;-53
2023/09/22 05:31:50;;;;;;;;;;;21.80;93.20;;;;;;5068808;28;19912;-52
2023/09/22 05:34:15;;;;;;;;;;;21.80;93.20;;;;;;5089086;28;19982;-52
2023/09/22 05:36:42;;;;;;;;;;;21.80;93.30;;;;;;5093792;28;19994;-53
2023/09/22 05:39:09;;;;;;;;;;;21.80;93.30;;;;;;5093923;28;19908;-53
2023/09/22 05:41:34;;;;;;;;;;;21.80;93.30;;;;;;5085917;28;19951;-54
2023/09/22 05:44:00;;;;;;;;;;;21.80;93.30;;;;;;5073563;28;19951;-54
2023/09/22 05:46:26;;;;;;;;;;;21.80;93.30;;;;;;5091175;28;20333;-53
2023/09/22 05:48:52;;;;;;;;;;;21.80;93.30;;;;;;5073126;28;19921;-53
2023/09/22 05:51:19;;;;;;;;;;;21.80;93.30;;;;;;5079667;28;19934;-54
2023/09/22 05:53:44;;;;;;;;;;;21.80;93.30;;;;;;5081664;28;20286;-54
2023/09/22 05:56:10;;;;;;;;;;;21.70;91.60;;;;;;5093777;28;19919;-51
2023/09/22 05:58:39;;;;;;;;;;;21.60;92.00;;;;;;5093387;28;20363;-52
2023/09/22 06:01:11;;;;;;;;;;;21.70;92.80;;;;;;5078770;28;19916;-53
2023/09/22 06:03:37;;;;;;;;;;;21.70;93.10;;;;;;5073878;28;19912;-54
2023/09/22 06:06:13;;;;;;;;;;;21.70;93.20;;;;;;5075429;28;20018;-53
2023/09/22 06:08:39;;;;;;;;;;;21.70;93.20;;;;;;5075588;28;19942;-50
2023/09/22 06:11:05;;;;;;;;;;;21.70;93.20;;;;;;5077534;28;20266;-51
2023/09/22 06:13:31;;;;;;;;;;;21.70;93.20;;;;;;5086480;28;20372;-54
2023/09/22 06:15:56;;;;;;;;;;;21.70;93.20;;;;;;5078368;28;19916;-53
2023/09/22 06:18:22;;;;;;;;;;;21.70;93.20;;;;;;5079171;28;19920;-53
2023/09/22 06:20:48;;;;;;;;;;;21.80;93.20;;;;;;5069938;28;20386;-52
2023/09/22 06:23:13;;;;;;;;;;;21.80;93.20;;;;;;5073028;28;19908;-52
2023/09/22 06:25:39;;;;;;;;;;;21.70;93.10;;;;;;5073574;28;19915;-53
2023/09/22 06:28:07;;;;;;;;;;;21.70;93.10;;;;;;5073018;28;19947;-52
2023/09/22 06:30:34;;;;;;;;;;;21.80;93.10;;;;;;5073503;28;19958;-52
2023/09/22 06:33:00;;;;;;;;;;;21.80;93.10;;;;;;5076902;28;20348;-54
2023/09/22 06:35:25;;;;;;;;;;;21.80;93.10;;;;;;5076791;28;19912;-53
2023/09/22 06:37:51;;;;;;;;;;;21.80;93.40;;;;;;5076923;28;19936;-54
2023/09/22 06:40:17;;;;;;;;;;;21.80;93.10;;;;;;5072857;28;19920;-53
2023/09/22 06:42:45;;;;;;;;;;;21.80;93.20;;;;;;5077422;28;20368;-53
2023/09/22 06:45:11;;;;;;;;;;;21.80;93.20;;;;;;5076736;28;19966;-52
2023/09/22 06:47:37;;;;;;;;;;;21.80;93.40;;;;;;5074851;28;19963;-55
2023/09/22 06:50:06;;;;;;;;;;;21.70;93.40;;;;;;5076639;28;19928;-53
2023/09/22 06:52:32;;;;;;;;;;;21.70;93.10;;;;;;5076457;28;19973;-52
2023/09/22 06:55:00;;;;;;;;;;;21.80;93.20;;;;;;5075294;28;20008;-54
2023/09/22 06:57:26;;;;;;;;;;;21.80;93.20;;;;;;5075429;28;20042;-52
2023/09/22 06:59:52;;;;;;;;;;;21.80;93.20;;;;;;5076980;28;19908;-54
2023/09/22 07:02:18;;;;;;;;;;;21.80;93.20;;;;;;5076121;28;20369;-54
2023/09/22 07:04:44;;;;;;;;;;;21.70;93.20;;;;;;5076480;28;19916;-54
2023/09/22 07:07:11;;;;;;;;;;;21.80;93.20;;;;;;5075628;28;19913;-53
2023/09/22 07:09:36;;;;;;;;;;;21.80;93.20;;;;;;5058407;28;19909;-50
2023/09/22 07:12:03;;;;;;;;;;;21.70;93.20;;;;;;5075889;28;19912;-52
2023/09/22 07:14:29;;;;;;;;;;;21.80;93.20;;;;;;5076405;28;19981;-53
2023/09/22 07:16:54;;;;;;;;;;;21.80;93.20;;;;;;5056778;28;19920;-52
2023/09/22 07:19:21;;;;;;;;;;;21.70;93.20;;;;;;5071476;28;19973;-52
2023/09/22 07:21:48;;;;;;;;;;;21.80;93.40;;;;;;5076239;28;19915;-52
2023/09/22 07:24:15;;;;;;;;;;;21.70;93.20;;;;;;5076476;28;19916;-52
2023/09/22 07:26:40;;;;;;;;;;;21.70;93.20;;;;;;5076089;28;19916;-53
2023/09/22 07:29:06;;;;;;;;;;;21.70;93.20;;;;;;5075490;28;19912;-50
2023/09/22 07:31:31;;;;;;;;;;;21.70;93.20;;;;;;5075978;28;20259;-51
2023/09/22 07:33:58;;;;;;;;;;;21.70;93.20;;;;;;5075688;28;19920;-54
2023/09/22 07:36:24;;;;;;;;;;;21.70;93.20;;;;;;5075926;28;19909;-55
2023/09/22 07:38:50;;;;;;;;;;;21.70;93.20;;;;;;5075102;28;19916;-53
2023/09/22 07:41:16;;;;;;;;;;;21.70;93.30;;;;;;5075717;28;19935;-54
2023/09/22 07:43:41;;;;;;;;;;;21.70;93.30;;;;;;5075720;28;19908;-52
2023/09/22 07:46:07;;;;;;;;;;;21.70;93.30;;;;;;5074153;28;19989;-54
2023/09/22 07:48:33;;;;;;;;;;;21.70;93.30;;;;;;5075422;28;19951;-52
2023/09/22 07:51:00;;;;;;;;;;;21.70;93.30;;;;;;5075965;28;20332;-53
2023/09/22 07:53:25;;;;;;;;;;;21.70;93.30;;;;;;5075322;28;20003;-50
2023/09/22 07:55:55;;;;;;;;;;;21.70;93.30;;;;;;5074462;28;19955;-50
2023/09/22 07:58:22;;;;;;;;;;;21.70;93.30;;;;;;5075170;28;20343;-53
2023/09/22 08:00:48;;;;;;;;;;;21.70;93.30;;;;;;5074045;28;19915;-52
2023/09/22 08:03:14;;;;;;;;;;;21.70;93.30;;;;;;5075434;28;19915;-54
2023/09/22 08:05:39;;;;;;;;;;;21.70;93.30;;;;;;5075216;28;19908;-54
2023/09/22 08:08:05;;;;;;;;;;;21.70;93.30;;;;;;5074489;28;19966;-51
2023/09/22 08:10:31;;;;;;;;;;;21.70;93.30;;;;;;5075359;28;19915;-52
2023/09/22 08:12:56;;;;;;;;;;;21.70;93.30;;;;;;5074896;28;19913;-54
2023/09/22 08:15:22;;;;;;;;;;;21.70;93.40;;;;;;5075070;28;19913;-54
2023/09/22 08:17:48;;;;;;;;;;;21.70;93.40;;;;;;5074320;28;19912;-52
2023/09/22 08:20:15;;;;;;;;;;;21.70;93.40;;;;;;5057119;28;20377;-54
2023/09/22 08:22:42;;;;;;;;;;;21.70;93.40;;;;;;5073591;28;19999;-53
2023/09/22 08:25:08;;;;;;;;;;;21.70;93.40;;;;;;5074308;28;20347;-53
2023/09/22 08:27:35;;;;;;;;;;;21.70;93.40;;;;;;5072782;28;19990;-54
2023/09/22 08:30:09;;;;;;;;;;;21.60;93.40;;;;;;5074604;28;19908;-51
2023/09/22 08:32:35;;;;;;;;;;;21.70;93.40;;;;;;5075154;28;20404;-54
2023/09/22 08:35:00;;;;;;;;;;;21.70;93.40;;;;;;5074548;28;19912;-51
2023/09/22 08:37:26;;;;;;;;;;;21.70;93.40;;;;;;5055998;28;19921;-53
2023/09/22 08:39:52;;;;;;;;;;;21.70;93.40;;;;;;5056956;28;19915;-54
2023/09/22 08:42:18;;;;;;;;;;;21.70;93.40;;;;;;5074820;28;19908;-52
2023/09/22 08:44:44;;;;;;;;;;;21.70;93.40;;;;;;5074611;28;19916;-54
2023/09/22 08:47:09;;;;;;;;;;;21.70;93.40;;;;;;5073310;28;19913;-52
2023/09/22 08:49:35;;;;;;;;;;;21.70;93.40;;;;;;5077863;28;19990;-52
2023/09/22 08:52:01;;;;;;;;;;;21.70;93.40;;;;;;5088946;28;19923;-51
2023/09/22 08:54:28;;;;;;;;;;;21.60;93.40;;;;;;5082424;28;20278;-53
2023/09/22 08:56:55;;;;;;;;;;;21.60;93.40;;;;;;5076317;28;20375;-54
2023/09/22 08:59:20;;;;;;;;;;;21.70;93.40;;;;;;5072545;28;19908;-53
2023/09/22 09:01:45;;;;;;;;;;;21.70;93.40;;;;;;5056240;28;19962;-53
2023/09/22 09:04:31;;;;;;;;;;;21.70;93.40;;;;;;5074683;28;19912;-51
2023/09/22 09:06:56;;;;;;;;;;;21.70;93.30;;;;;;5056220;28;19995;-55
2023/09/22 09:09:22;;;;;;;;;;;21.70;93.30;;;;;;5052249;28;20008;-54
2023/09/22 09:11:57;;;;;;;;;;;21.60;93.20;;;;;;5084709;28;19947;-52
2023/09/22 09:14:23;;;;;;;;;;;21.70;93.20;;;;;;5094116;28;19919;-54
2023/09/22 09:16:49;;;;;;;;;;;21.60;93.10;;;;;;5094251;28;19915;-54
2023/09/22 09:19:15;;;;;;;;;;;21.70;93.20;;;;;;5090883;28;20003;-54
2023/09/22 09:21:59;;;;;;;;;;;21.70;93.20;;;;;;5071212;28;20263;-50
2023/09/22 09:24:24;;;;;;;;;;;21.60;93.10;;;;;;5071236;28;19924;-55
2023/09/22 09:26:51;;;;;;;;;;;21.70;93.10;;;;;;5067945;28;19924;-52
2023/09/22 09:29:25;;;;;;;;;;;21.70;93.10;;;;;;5080717;28;19967;-54
2023/09/22 09:31:51;;;;;;;;;;;21.70;93.10;;;;;;5084666;28;19927;-54
2023/09/22 09:34:16;;;;;;;;;;;21.60;92.70;;;;;;5073161;28;19916;-53
2023/09/22 09:36:42;;;;;;;;;;;21.60;92.60;;;;;;5077645;28;19965;-50
2023/09/22 09:39:08;;;;;;;;;;;21.60;92.80;;;;;;5078046;28;19919;-54
2023/09/22 09:41:34;;;;;;;;;;;21.60;92.90;;;;;;5091144;28;20212;-49
2023/09/22 09:44:01;;;;;;;;;;;21.60;92.90;;;;;;5073725;28;19916;-49
2023/09/22 09:46:28;;;;;;;;;;;21.60;92.90;;;;;;5072821;28;19912;-51
2023/09/22 09:48:55;;;;;;;;;;;21.60;92.90;;;;;;5072034;28;20070;-52
2023/09/22 09:51:23;;;;;;;;;;;21.60;93.20;;;;;;5053383;28;19920;-53
2023/09/22 09:53:51;;;;;;;;;;;21.60;93.00;;;;;;5060313;28;19924;-53
2023/09/22 09:56:17;;;;;;;;;;;21.60;93.00;;;;;;5051897;28;19986;-53
2023/09/22 09:58:45;;;;;;;;;;;21.60;93.00;;;;;;5053497;28;20027;-51
2023/09/22 10:01:11;;;;;;;;;;;21.60;93.00;;;;;;5055117;28;19952;-53
2023/09/22 10:03:39;;;;;;;;;;;21.60;93.00;;;;;;5059967;28;19971;-53
2023/09/22 10:06:06;;;;;;;;;;;21.60;93.00;;;;;;5071377;28;19939;-53
2023/09/22 10:08:32;;;;;;;;;;;21.60;93.10;;;;;;5057676;28;20018;-53
2023/09/22 10:11:07;;;;;;;;;;;21.60;93.10;;;;;;5056928;28;19955;-50
2023/09/22 10:13:36;;;;;;;;;;;21.60;93.10;;;;;;5072218;28;19916;-53
2023/09/22 10:16:03;;;;;;;;;;;21.60;93.10;;;;;;5074253;28;19924;-52
2023/09/22 10:18:47;;;;;;;;;;;21.60;93.10;;;;;;5056399;28;19913;-53
2023/09/22 10:21:31;;;;;;;;;;;21.60;93.10;;;;;;5060865;28;20015;-55
2023/09/22 10:24:15;;;;;;;;;;;21.60;93.20;;;;;;5076963;28;20299;-53
2023/09/22 10:26:55;;;;;;;;;;;21.60;93.20;;;;;;5071399;28;20315;-52
2023/09/22 10:29:33;;;;;;;;;;;21.60;93.20;;;;;;5054955;28;19935;-54
2023/09/22 10:32:19;;;;;;;;;;;21.60;93.20;;;;;;5052642;28;19955;-53
2023/09/22 10:34:49;;;;;;;;;;;21.60;93.20;;;;;;5066134;28;20050;-54
2023/09/22 10:37:15;;;;;;;;;;;21.60;93.20;;;;;;5074107;28;20300;-53
2023/09/22 10:39:53;;;;;;;;;;;21.60;93.50;;;;;;5056695;28;19920;-53
2023/09/22 10:42:20;;;;;;;;;;;21.60;93.30;;;;;;5057672;28;20455;-52
2023/09/22 10:44:59;;;;;;;;;;;21.50;93.20;;;;;;5059387;28;20043;-51
2023/09/22 10:47:34;;;;;;;;;;;21.50;93.30;;;;;;5056579;28;19941;-49
2023/09/22 10:50:08;;;;;;;;;;;21.60;93.30;;;;;;5059734;28;19972;-48
2023/09/22 10:52:33;;;;;;;;;;;21.50;93.30;;;;;;5067645;28;19917;-52
2023/09/22 10:54:59;;;;;;;;;;;21.50;93.30;;;;;;5076416;28;19936;-52
2023/09/22 10:57:25;;;;;;;;;;;21.50;93.30;;;;;;5078212;28;19917;-54
2023/09/22 10:59:50;;;;;;;;;;;21.50;93.30;;;;;;5091299;28;20043;-51
2023/09/22 11:02:22;;;;;;;;;;;21.50;93.30;;;;;;5075736;28;19974;-53
2023/09/22 11:04:48;;;;;;;;;;;21.50;93.30;;;;;;5087950;28;19912;-53
2023/09/22 11:07:33;;;;;;;;;;;21.50;93.30;;;;;;5082769;28;20233;-53
2023/09/22 11:09:59;;;;;;;;;;;21.50;93.30;;;;;;5084292;28;19915;-51
2023/09/22 11:12:26;;;;;;;;;;;21.50;93.20;;;;;;5083170;28;19942;-52
2023/09/22 11:14:51;;;;;;;;;;;21.50;93.30;;;;;;5076296;28;19912;-52
2023/09/22 11:17:17;;;;;;;;;;;21.50;93.20;;;;;;5082064;28;19919;-54
2023/09/22 11:19:49;;;;;;;;;;;21.50;93.20;;;;;;5085303;28;20394;-51
2023/09/22 11:22:14;;;;;;;;;;;21.50;93.30;;;;;;5074551;28;19920;-49
2023/09/22 11:24:40;;;;;;;;;;;21.50;93.30;;;;;;5076027;28;19908;-52
2023/09/22 11:27:06;;;;;;;;;;;21.50;93.30;;;;;;5078084;28;19908;-55
2023/09/22 11:29:33;;;;;;;;;;;21.50;93.50;;;;;;5074569;28;19912;-51
2023/09/22 11:32:00;;;;;;;;;;;21.50;93.30;;;;;;5079830;28;19978;-55
2023/09/22 11:34:27;;;;;;;;;;;21.50;93.30;;;;;;5085407;28;20432;-55
2023/09/22 11:36:53;;;;;;;;;;;21.50;93.30;;;;;;5082306;28;19978;-55
2023/09/22 11:39:27;;;;;;;;;;;21.50;93.30;;;;;;5066284;28;19955;-52
2023/09/22 11:41:53;;;;;;;;;;;21.50;93.30;;;;;;5076039;28;19970;-52
2023/09/22 11:44:19;;;;;;;;;;;21.50;93.30;;;;;;5075103;28;19995;-53
2023/09/22 11:46:45;;;;;;;;;;;21.50;93.30;;;;;;5075563;28;19962;-53
2023/09/22 11:49:12;;;;;;;;;;;21.50;93.30;;;;;;5074173;28;19920;-51
2023/09/22 11:51:41;;;;;;;;;;;21.50;93.30;;;;;;5075774;28;19909;-54
2023/09/22 11:54:07;;;;;;;;;;;21.50;93.30;;;;;;5057688;28;19920;-51
2023/09/22 11:56:33;;;;;;;;;;;21.50;93.30;;;;;;5084431;28;19912;-53
2023/09/22 11:59:14;;;;;;;;;;;21.50;93.30;;;;;;5081282;28;19935;-51
2023/09/22 12:01:40;;;;;;;;;;;21.50;93.30;;;;;;5078153;28;19923;-54
2023/09/22 12:04:06;;;;;;;;;;;21.50;93.30;;;;;;5093763;28;19912;-50
2023/09/22 12:06:32;;;;;;;;;;;21.50;93.30;;;;;;5095546;28;19908;-53
2023/09/22 12:08:58;;;;;;;;;;;21.50;93.30;;;;;;5095261;28;20036;-52
2023/09/22 12:11:24;;;;;;;;;;;21.50;93.30;;;;;;5090199;28;19912;-54
2023/09/22 12:13:50;;;;;;;;;;;21.50;93.30;;;;;;5075304;28;19920;-52
2023/09/22 12:16:15;;;;;;;;;;;21.50;93.30;;;;;;5074703;28;19919;-52
2023/09/22 12:18:41;;;;;;;;;;;21.50;93.50;;;;;;5085409;28;19912;-51
2023/09/22 12:21:06;;;;;;;;;;;21.40;93.20;;;;;;5081391;28;20366;-51
2023/09/22 12:23:34;;;;;;;;;;;21.50;93.30;;;;;;5082087;28;20286;-52
2023/09/22 12:26:00;;;;;;;;;;;21.50;93.30;;;;;;5074561;28;19908;-53
2023/09/22 12:28:26;;;;;;;;;;;21.50;93.30;;;;;;5074807;28;19918;-52
2023/09/22 12:30:52;;;;;;;;;;;21.50;93.30;;;;;;5074671;28;20018;-52
2023/09/22 12:33:17;;;;;;;;;;;21.50;93.30;;;;;;5073752;28;19916;-52
2023/09/22 12:35:43;;;;;;;;;;;21.50;93.30;;;;;;5074025;28;19923;-53
2023/09/22 12:38:08;;;;;;;;;;;21.50;93.30;;;;;;5080523;28;19970;-54
2023/09/22 12:40:34;;;;;;;;;;;21.50;93.30;;;;;;5075160;28;19923;-54
2023/09/22 12:42:59;;;;;;;;;;;21.40;93.30;;;;;;5094951;28;19952;-50
2023/09/22 12:45:25;;;;;;;;;;;21.50;93.30;;;;;;5075408;28;19912;-53
2023/09/22 12:47:51;;;;;;;;;;;21.50;93.30;;;;;;5094828;28;19912;-50
2023/09/22 12:50:25;;;;;;;;;;;21.40;93.20;;;;;;5092847;28;19917;-51
2023/09/22 12:52:50;;;;;;;;;;;21.40;93.30;;;;;;5088553;28;20007;-53
2023/09/22 12:55:16;;;;;;;;;;;21.40;93.30;;;;;;5074421;28;19912;-52
2023/09/22 12:57:41;;;;;;;;;;;21.40;93.30;;;;;;5080742;28;20442;-54
2023/09/22 13:00:07;;;;;;;;;;;21.40;93.20;;;;;;5084817;28;20000;-53
2023/09/22 13:02:34;;;;;;;;;;;21.40;93.20;;;;;;5071036;28;19908;-55
2023/09/22 13:05:03;;;;;;;;;;;21.40;93.20;;;;;;5070153;28;20012;-55
2023/09/22 13:07:28;;;;;;;;;;;21.40;93.20;;;;;;5070466;28;19916;-52
2023/09/22 13:09:54;;;;;;;;;;;21.40;93.20;;;;;;5081393;28;19920;-56
2023/09/22 13:12:19;;;;;;;;;;;21.40;93.20;;;;;;5070084;28;20012;-52
2023/09/22 13:14:45;;;;;;;;;;;21.40;93.20;;;;;;5070378;28;20456;-54
2023/09/22 13:17:12;;;;;;;;;;;21.40;93.20;;;;;;5070548;28;19908;-53
2023/09/22 13:19:38;;;;;;;;;;;21.40;93.20;;;;;;5069555;28;20250;-53
2023/09/22 13:22:03;;;;;;;;;;;21.40;93.20;;;;;;5069826;28;19913;-49
2023/09/22 13:24:29;;;;;;;;;;;21.40;93.20;;;;;;5068723;28;20275;-51
2023/09/22 13:26:55;;;;;;;;;;;21.40;93.10;;;;;;5069197;28;19909;-54
2023/09/22 13:29:21;;;;;;;;;;;21.40;93.10;;;;;;5069795;28;20268;-55
2023/09/22 13:31:48;;;;;;;;;;;21.40;93.30;;;;;;5070444;28;20346;-54
2023/09/22 13:34:13;;;;;;;;;;;21.40;93.10;;;;;;5070092;28;20317;-53
2023/09/22 13:36:39;;;;;;;;;;;21.40;93.10;;;;;;5070709;28;19909;-54
2023/09/22 13:39:04;;;;;;;;;;;21.40;93.10;;;;;;5069749;28;20382;-54
2023/09/22 13:41:30;;;;;;;;;;;21.40;93.10;;;;;;5069260;28;19908;-55
2023/09/22 13:43:55;;;;;;;;;;;21.40;93.10;;;;;;5069701;28;19939;-55
2023/09/22 13:46:21;;;;;;;;;;;21.40;93.10;;;;;;5069525;28;19963;-55
2023/09/22 13:48:47;;;;;;;;;;;21.40;93.10;;;;;;5076844;28;19920;-55
2023/09/22 13:51:12;;;;;;;;;;;21.40;93.10;;;;;;5089338;28;19916;-52
2023/09/22 13:53:38;;;;;;;;;;;21.40;93.10;;;;;;5090122;28;20288;-53
2023/09/22 13:56:07;;;;;;;;;;;21.40;93.10;;;;;;5090066;28;19920;-54
2023/09/22 13:58:32;;;;;;;;;;;21.40;93.10;;;;;;5071730;28;19908;-52
2023/09/22 14:00:58;;;;;;;;;;;21.40;93.10;;;;;;5080070;28;20262;-55
2023/09/22 14:03:23;;;;;;;;;;;21.40;93.10;;;;;;5076439;28;19995;-55
2023/09/22 14:05:49;;;;;;;;;;;21.40;93.10;;;;;;5076448;28;19908;-54
2023/09/22 14:08:15;;;;;;;;;;;21.40;93.10;;;;;;5058346;28;19959;-52
2023/09/22 14:10:41;;;;;;;;;;;21.40;93.10;;;;;;5075539;28;19920;-52
2023/09/22 14:13:07;;;;;;;;;;;21.40;93.10;;;;;;5075822;28;19909;-53